This is the latest recevied weather packets stored in our database for station/object CE3PA-5. If no packets are shown the sender has not sent any weather packets the latest 10 day(s).
| Time | Temp. | Humidity | Pressure | Rain* | Wind** | Luminosity | Snow |
|---|---|---|---|---|---|---|---|
| 1777240535 | 17.78° C | 18% | 756.8 hPa | - | - | - | - |
| 1777239635 | 19.44° C | 17% | 756.8 hPa | - | - | - | - |
| 1777238735 | 20° C | 17% | 756.7 hPa | - | - | - | - |
| 1777237834 | 20° C | 17% | 756.6 hPa | - | - | - | - |
| 1777236934 | 20° C | 17% | 756.6 hPa | - | - | - | - |
| 1777235134 | 21.11° C | 17% | 756.5 hPa | - | - | - | - |
| 1777234234 | 21.67° C | 17% | 756.5 hPa | - | - | - | - |
| 1777233333 | 21.67° C | 16% | 756.5 hPa | - | - | - | - |
| 1777232433 | 22.22° C | 16% | 756.5 hPa | - | - | - | - |
| 1777231533 | 22.78° C | 16% | 756.5 hPa | - | - | - | - |
| 1777230633 | 22.78° C | 16% | 756.4 hPa | - | - | - | - |
| 1777229733 | 22.78° C | 15% | 756.4 hPa | - | - | - | - |
| 1777228833 | 22.78° C | 15% | 756.3 hPa | - | - | - | - |
| 1777227932 | 23.33° C | 15% | 756.3 hPa | - | - | - | - |
| 1777227032 | 23.33° C | 15% | 756.4 hPa | - | - | - | - |
| 1777225239 | 24.44° C | 15% | 756.6 hPa | - | - | - | - |
| 1777224338 | 24.44° C | 15% | 756.6 hPa | - | - | - | - |
| 1777223438 | 25° C | 15% | 756.7 hPa | - | - | - | - |
| 1777222538 | 25° C | 15% | 756.8 hPa | - | - | - | - |
| 1777218941 | 27.22° C | 15% | 757.1 hPa | - | - | - | - |
| 1777218038 | 26.67° C | 14% | 757 hPa | - | - | - | - |
* Rain since midnight (hover to see other rain measurements)
** Current wind speed in m/s (hover to see current wind gust speed)